Time;durP1;ratioP1;P1;durP2;ratioP2;P2;SDS_P1;SDS_P2;PMS_P1;PMS_P2;Temp;Humidity;BMP_temperature;BMP_pressure;BME280_temperature;BME280_humidity;BME280_pressure;Samples;Min_cycle;Max_cycle;Signal;HPM_P1;HPM_P2
2021/01/29 00:00:36;;;;;;;7.97;7.23;;;;;;;1.58;82.04;99233.44;4973241;28;20231;-77
2021/01/29 00:03:06;;;;;;;7.97;7.27;;;;;;;1.54;83.02;99237.72;4973445;28;20208;-77
2021/01/29 00:05:37;;;;;;;8.40;7.60;;;;;;;1.56;82.08;99238.59;4979059;28;20258;-76
2021/01/29 00:08:03;;;;;;;8.27;7.47;;;;;;;1.55;83.12;99234.31;4973245;28;20666;-77
2021/01/29 00:10:29;;;;;;;8.47;7.67;;;;;;;1.53;82.56;99223.16;4973139;28;20290;-77
2021/01/29 00:12:55;;;;;;;8.20;7.40;;;;;;;1.55;82.41;99221.47;4973730;28;20204;-77
2021/01/29 00:15:22;;;;;;;8.83;7.93;;;;;;;1.58;81.96;99210.28;4977993;28;20200;-77
2021/01/29 00:17:49;;;;;;;8.37;7.57;;;;;;;1.56;82.34;99205.16;4977187;28;20210;-77
2021/01/29 00:20:19;;;;;;;8.80;8.10;;;;;;;1.58;82.09;99210.28;4977096;28;20228;-77
2021/01/29 00:22:46;;;;;;;8.47;7.77;;;;;;;1.59;82.60;99210.31;4969104;28;20211;-77
2021/01/29 00:25:16;;;;;;;9.07;7.80;;;;;;;1.57;83.07;99203.47;4973045;28;20208;-76
2021/01/29 00:27:42;;;;;;;9.10;8.30;;;;;;;1.57;83.72;99199.16;4975289;28;20678;-77
2021/01/29 00:30:11;;;;;;;9.23;8.33;;;;;;;1.62;82.86;99194.00;4977678;28;20227;-77
2021/01/29 00:32:37;;;;;;;9.47;8.47;;;;;;;1.57;82.80;99213.75;4973444;28;20227;-77
2021/01/29 00:35:03;;;;;;;10.03;9.03;;;;;;;1.61;83.56;99212.03;4972401;28;20658;-76
2021/01/29 00:37:29;;;;;;;8.73;7.93;;;;;;;1.65;82.90;99198.28;4973347;28;20200;-76
2021/01/29 00:39:56;;;;;;;9.40;8.50;;;;;;;1.69;83.02;99197.41;4974728;28;20224;-76
2021/01/29 00:42:21;;;;;;;9.57;8.67;;;;;;;1.69;82.27;99179.41;4973017;28;20204;-77
2021/01/29 00:44:47;;;;;;;10.33;9.40;;;;;;;1.71;82.40;99167.41;4972044;28;20271;-76
2021/01/29 00:47:13;;;;;;;9.63;8.73;;;;;;;1.70;82.60;99166.53;4972961;28;20196;-77
2021/01/29 00:49:39;;;;;;;9.60;8.60;;;;;;;1.72;82.24;99169.94;4972718;28;20311;-76
2021/01/29 00:52:05;;;;;;;9.70;8.70;;;;;;;1.74;82.84;99170.78;4976598;28;20230;-77
2021/01/29 00:54:31;;;;;;;9.10;8.30;;;;;;;1.71;83.32;99165.69;4972903;28;20251;-77
2021/01/29 00:56:57;;;;;;;9.60;8.70;;;;;;;1.75;83.21;99163.97;4973217;28;20670;-77
2021/01/29 00:59:23;;;;;;;10.03;8.63;;;;;;;1.73;82.30;99168.25;4972887;28;20302;-77
2021/01/29 01:01:49;;;;;;;9.87;8.97;;;;;;;1.73;82.65;99160.53;4974241;28;20647;-77
2021/01/29 01:04:15;;;;;;;9.33;8.53;;;;;;;1.71;83.18;99181.13;4972284;28;20207;-77
2021/01/29 01:06:42;;;;;;;9.90;9.00;;;;;;;1.72;82.76;99179.38;4973592;28;20211;-77
2021/01/29 01:09:08;;;;;;;9.33;8.43;;;;;;;1.70;82.96;99179.38;4973447;28;20224;-77
2021/01/29 01:11:34;;;;;;;9.30;8.50;;;;;;;1.71;83.69;99180.28;4974561;28;20228;-77
2021/01/29 01:14:01;;;;;;;11.00;10.00;;;;;;;1.67;84.33;99182.00;4972446;28;20663;-77
2021/01/29 01:16:27;;;;;;;10.50;9.50;;;;;;;1.71;83.99;99183.69;4972603;28;20196;-77
2021/01/29 01:18:53;;;;;;;10.93;9.83;;;;;;;1.74;83.58;99169.94;4972223;28;20204;-77
2021/01/29 01:21:19;;;;;;;11.40;10.40;;;;;;;1.72;83.53;99171.69;4979805;28;20685;-77
2021/01/29 01:23:45;;;;;;;10.93;9.83;;;;;;;1.72;83.47;99163.97;4972539;28;20204;-77
2021/01/29 01:26:10;;;;;;;9.90;9.00;;;;;;;1.73;83.34;99165.69;4973005;28;20666;-76
2021/01/29 01:28:36;;;;;;;11.00;9.20;;;;;;;1.73;83.41;99156.25;4973465;28;20212;-77
2021/01/29 01:31:03;;;;;;;10.40;9.47;;;;;;;1.73;83.68;99151.09;4972331;28;20236;-77
2021/01/29 01:33:29;;;;;;;9.73;8.83;;;;;;;1.72;83.49;99151.09;4972659;28;20200;-76
2021/01/29 01:35:55;;;;;;;9.63;8.73;;;;;;;1.74;82.79;99139.94;4979055;28;20312;-77
2021/01/29 01:38:21;;;;;;;8.83;8.07;;;;;;;1.70;82.88;99130.50;4978856;28;20208;-77
2021/01/29 01:40:47;;;;;;;8.77;7.80;;;;;;;1.71;82.83;99127.09;4978963;28;20220;-77
2021/01/29 01:43:14;;;;;;;9.70;8.70;;;;;;;1.69;83.00;99122.84;4979958;28;20203;-77
2021/01/29 01:45:56;;;;;;;10.20;9.30;;;;;;;1.68;82.56;99121.94;4978130;28;20211;-77
2021/01/29 01:48:47;;;;;;;10.20;9.30;;;;;;;1.68;82.50;99106.53;4971839;28;20208;-76
2021/01/29 01:51:22;;;;;;;9.47;8.63;;;;;;;1.70;82.73;99099.66;4977905;28;20887;-77
2021/01/29 01:53:51;;;;;;;9.57;8.77;;;;;;;1.68;83.30;99101.38;4972290;28;20208;-76
2021/01/29 01:56:21;;;;;;;8.63;7.87;;;;;;;1.67;82.83;99093.69;4977579;28;20659;-77
2021/01/29 01:58:52;;;;;;;9.70;8.70;;;;;;;1.64;82.69;99086.81;4972423;28;20200;-77
2021/01/29 02:01:21;;;;;;;9.43;8.50;;;;;;;1.67;82.33;99083.41;4982555;28;20204;-76
2021/01/29 02:03:49;;;;;;;9.37;8.47;;;;;;;1.62;83.21;99078.25;4972407;28;20200;-76
2021/01/29 02:06:16;;;;;;;9.03;8.23;;;;;;;1.60;82.66;99069.69;4976661;28;20204;-76
2021/01/29 02:08:45;;;;;;;9.77;8.87;;;;;;;1.57;83.03;99072.31;4977990;28;20211;-77
2021/01/29 02:11:12;;;;;;;9.80;9.00;;;;;;;1.56;83.01;99063.72;4975004;28;20646;-77
2021/01/29 02:13:37;;;;;;;9.40;8.20;;;;;;;1.52;82.94;99046.59;4975947;28;20212;-77
2021/01/29 02:16:13;;;;;;;8.73;7.93;;;;;;;1.49;82.81;99038.91;4974943;28;20291;-77
2021/01/29 02:18:54;;;;;;;9.33;8.40;;;;;;;1.46;83.02;99031.19;4975550;28;20230;-77
2021/01/29 02:21:49;;;;;;;9.60;8.70;;;;;;;1.41;82.97;99030.38;4976588;28;20196;-77
2021/01/29 02:25:03;;;;;;;8.83;8.13;;;;;;;1.40;83.07;99031.22;4977262;28;20675;-77
2021/01/29 02:27:38;;;;;;;9.77;8.87;;;;;;;1.37;83.95;99024.38;4933515;29;20203;-77
2021/01/29 02:30:29;;;;;;;9.07;8.23;;;;;;;1.36;83.41;99022.66;4970385;28;20225;-77
2021/01/29 02:33:26;;;;;;;8.17;7.50;;;;;;;1.35;84.27;99015.00;4973065;28;20263;-76
2021/01/29 02:36:18;;;;;;;8.80;8.00;;;;;;;1.32;83.90;99008.13;4977476;28;20212;-77
2021/01/29 02:39:01;;;;;;;8.97;8.20;;;;;;;1.33;83.19;98998.72;4975656;28;20685;-77
2021/01/29 02:41:43;;;;;;;9.20;8.40;;;;;;;1.31;83.68;99003.84;4971083;28;20671;-77
2021/01/29 02:44:20;;;;;;;9.07;8.37;;;;;;;1.28;84.48;98990.16;4973373;28;20212;-77
2021/01/29 02:46:51;;;;;;;9.13;8.30;;;;;;;1.29;84.21;98986.72;4976180;28;20720;-76
2021/01/29 02:49:27;;;;;;;9.30;8.50;;;;;;;1.24;83.84;98979.03;4968882;28;20630;-77
2021/01/29 02:52:00;;;;;;;9.47;8.77;;;;;;;1.21;84.23;98962.78;4976563;28;20227;-77
2021/01/29 02:54:35;;;;;;;9.77;8.83;;;;;;;1.23;84.40;98954.22;4974285;28;20295;-77
2021/01/29 02:57:06;;;;;;;8.77;7.80;;;;;;;1.25;84.43;98942.22;4974970;28;20713;-76
2021/01/29 02:59:36;;;;;;;9.40;8.60;;;;;;;1.25;84.37;98925.91;4974280;28;20816;-76
2021/01/29 03:02:07;;;;;;;8.33;7.63;;;;;;;1.24;83.58;98914.78;4976097;28;20204;-77
2021/01/29 03:04:48;;;;;;;9.07;8.37;;;;;;;1.22;83.26;98903.66;4974061;28;20267;-77
2021/01/29 03:07:20;;;;;;;9.17;8.37;;;;;;;1.21;83.70;98883.09;4973681;28;20200;-77
2021/01/29 03:09:53;;;;;;;8.97;8.17;;;;;;;1.17;84.20;98895.16;4974780;28;20224;-77
2021/01/29 03:12:24;;;;;;;9.97;9.07;;;;;;;1.16;83.73;98883.97;4967187;28;20694;-77
2021/01/29 03:14:56;;;;;;;8.70;7.90;;;;;;;1.16;83.50;98880.56;4973907;28;20786;-76
2021/01/29 03:17:28;;;;;;;9.30;8.60;;;;;;;1.04;84.61;98878.09;4974748;28;20254;-77
2021/01/29 03:20:00;;;;;;;10.03;9.03;;;;;;;1.02;84.83;98877.22;4976275;28;20291;-76
2021/01/29 03:22:32;;;;;;;8.50;7.70;;;;;;;1.03;84.81;98873.78;4974367;28;20662;-77
2021/01/29 03:25:04;;;;;;;8.93;8.13;;;;;;;1.07;84.43;98860.06;4974469;28;20223;-76
2021/01/29 03:27:38;;;;;;;9.47;8.60;;;;;;;1.10;84.08;98849.78;4974131;28;20196;-77
2021/01/29 03:30:09;;;;;;;9.83;9.03;;;;;;;1.06;84.80;98851.50;4973615;28;20232;-77
2021/01/29 03:32:38;;;;;;;9.60;8.70;;;;;;;1.07;84.46;98845.53;4974243;28;20227;-77
2021/01/29 03:35:09;;;;;;;9.67;8.53;;;;;;;1.06;84.29;98832.69;4981250;28;20207;-77
2021/01/29 03:37:40;;;;;;;9.53;8.63;;;;;;;1.04;85.13;98824.13;4974326;28;20208;-77
2021/01/29 03:40:08;;;;;;;10.03;9.23;;;;;;;1.06;84.69;98815.53;4979586;28;20275;-77
2021/01/29 03:42:41;;;;;;;9.33;8.43;;;;;;;1.03;84.29;98814.69;4973894;28;20204;-77
2021/01/29 03:45:16;;;;;;;10.63;9.57;;;;;;;1.04;84.15;98816.41;4979516;28;20199;-77
2021/01/29 03:47:55;;;;;;;8.80;8.17;;;;;;;1.04;84.12;98814.69;4973907;28;20208;-76
2021/01/29 03:50:30;;;;;;;9.20;8.37;;;;;;;1.07;84.60;98818.94;4978824;28;20598;-77
2021/01/29 03:53:14;;;;;;;9.53;8.50;;;;;;;1.07;83.84;98812.13;4973976;28;20655;-77
2021/01/29 03:55:47;;;;;;;8.90;8.17;;;;;;;1.07;83.87;98819.81;4978732;28;20215;-77
2021/01/29 03:58:18;;;;;;;9.87;8.97;;;;;;;1.07;84.21;98816.38;4987736;28;20666;-75
2021/01/29 04:00:56;;;;;;;9.13;8.30;;;;;;;1.04;84.37;98803.56;4977024;28;20227;-76
2021/01/29 04:03:33;;;;;;;8.73;7.93;;;;;;;1.03;84.38;98809.56;4978849;28;20686;-76
2021/01/29 04:06:09;;;;;;;9.73;8.93;;;;;;;1.03;84.22;98797.59;4973077;28;20211;-77
2021/01/29 04:08:42;;;;;;;9.87;9.07;;;;;;;1.05;85.19;98794.97;4976663;28;20277;-76
2021/01/29 04:11:17;;;;;;;9.43;8.63;;;;;;;1.10;84.07;98782.97;4979089;28;20227;-77
2021/01/29 04:13:47;;;;;;;9.73;8.93;;;;;;;1.11;84.56;98764.97;4978316;28;20219;-77
2021/01/29 04:16:17;;;;;;;10.60;9.70;;;;;;;1.13;83.83;98752.97;4973254;28;20204;-77
2021/01/29 04:18:47;;;;;;;9.87;9.07;;;;;;;1.10;84.90;98747.00;4973096;28;20674;-77
2021/01/29 04:21:19;;;;;;;10.40;9.50;;;;;;;1.11;83.92;98736.72;4973266;28;20842;-77
2021/01/29 04:23:51;;;;;;;9.83;9.00;;;;;;;1.12;84.50;98738.41;4973705;28;20201;-77
2021/01/29 04:26:22;;;;;;;10.73;9.83;;;;;;;1.12;83.97;98740.13;4972678;28;20663;-77
2021/01/29 04:28:52;;;;;;;11.30;10.33;;;;;;;1.12;83.92;98733.25;4976953;28;20212;-77
2021/01/29 04:31:21;;;;;;;9.77;8.97;;;;;;;1.12;84.46;98725.56;4975212;28;20274;-76
2021/01/29 04:33:51;;;;;;;10.63;9.73;;;;;;;1.09;84.27;98715.31;4973051;28;20204;-77
2021/01/29 04:36:20;;;;;;;10.60;9.70;;;;;;;1.08;84.15;98705.91;4975356;28;20591;-77
2021/01/29 04:38:50;;;;;;;9.77;8.87;;;;;;;1.07;83.82;98709.34;4972860;28;20227;-76
2021/01/29 04:41:30;;;;;;;9.80;8.80;;;;;;;1.10;84.41;98703.31;4973014;28;20200;-77
2021/01/29 04:44:28;;;;;;;11.47;9.53;;;;;;;1.10;84.98;98693.03;4979913;28;20207;-77
2021/01/29 04:47:08;;;;;;;10.30;9.40;;;;;;;1.09;84.36;98691.31;4969502;28;20204;-76
2021/01/29 04:50:09;;;;;;;10.67;9.67;;;;;;;1.07;84.25;98687.91;4972557;28;20718;-77
2021/01/29 04:53:07;;;;;;;10.70;9.70;;;;;;;1.05;84.81;98680.25;4972012;28;20223;-76
2021/01/29 04:55:40;;;;;;;10.63;9.57;;;;;;;1.03;84.73;98679.41;4972321;28;20215;-77
2021/01/29 04:58:11;;;;;;;10.93;10.03;;;;;;;1.06;84.15;98671.66;4973873;28;20204;-77
2021/01/29 05:00:51;;;;;;;10.83;9.73;;;;;;;1.06;85.04;98673.38;4972847;28;20232;-77
2021/01/29 05:03:52;;;;;;;10.90;9.90;;;;;;;1.06;84.60;98663.09;4973558;28;20680;-77
2021/01/29 05:06:28;;;;;;;10.10;9.30;;;;;;;1.07;84.78;98652.81;4974488;28;20204;-77
2021/01/29 05:09:11;;;;;;;10.77;9.77;;;;;;;1.05;84.63;98653.69;4974737;28;20208;-76
2021/01/29 05:12:03;;;;;;;10.60;9.70;;;;;;;1.06;84.91;98643.41;4972509;28;20224;-75
2021/01/29 05:14:57;;;;;;;9.97;9.07;;;;;;;1.05;84.07;98638.25;4972341;28;20208;-76
2021/01/29 05:18:01;;;;;;;9.93;9.03;;;;;;;1.05;84.69;98633.13;4969859;28;20618;-76
2021/01/29 05:20:48;;;;;;;9.33;8.43;;;;;;;1.07;84.73;98624.56;4967339;28;20302;-76
2021/01/29 05:23:31;;;;;;;10.20;9.23;;;;;;;1.04;84.32;98628.88;4972655;28;20211;-76
2021/01/29 05:26:23;;;;;;;9.63;8.83;;;;;;;1.09;84.74;98617.69;4971814;28;20208;-76
2021/01/29 05:29:02;;;;;;;9.30;8.40;;;;;;;1.11;84.51;98612.50;4972234;28;20251;-76
2021/01/29 05:31:40;;;;;;;9.20;8.47;;;;;;;1.14;84.48;98608.19;4967516;28;20226;-76
2021/01/29 05:34:20;;;;;;;9.70;8.90;;;;;;;1.15;84.51;98598.75;4979955;28;20581;-75
2021/01/29 05:37:03;;;;;;;9.30;8.60;;;;;;;1.08;84.70;98587.72;4972360;28;20204;-75
2021/01/29 05:39:42;;;;;;;9.93;9.10;;;;;;;1.09;84.65;98592.00;4972023;28;20236;-75
2021/01/29 05:42:37;;;;;;;10.13;9.00;;;;;;;1.06;84.80;98586.88;4981413;28;20227;-76
2021/01/29 05:45:23;;;;;;;10.80;9.90;;;;;;;1.08;84.43;98579.16;4969768;28;20212;-75
2021/01/29 05:48:21;;;;;;;10.50;9.60;;;;;;;1.05;84.45;98574.03;4975902;28;20208;-76
2021/01/29 05:51:20;;;;;;;10.37;9.47;;;;;;;1.04;84.75;98567.22;4978294;28;20228;-76
2021/01/29 05:54:24;;;;;;;12.00;11.00;;;;;;;1.05;85.48;98566.31;4967000;28;20200;-75
2021/01/29 05:57:08;;;;;;;11.60;10.60;;;;;;;0.99;85.68;98560.41;4959291;28;20565;-76
2021/01/29 05:59:47;;;;;;;11.00;10.10;;;;;;;1.02;85.70;98558.66;4969718;28;20290;-76
2021/01/29 06:02:28;;;;;;;11.10;10.10;;;;;;;1.04;85.55;98554.38;4975395;28;20204;-76
2021/01/29 06:05:15;;;;;;;11.23;10.20;;;;;;;1.05;85.69;98545.78;4975582;28;20579;-75
2021/01/29 06:08:07;;;;;;;11.77;10.77;;;;;;;1.04;85.56;98537.22;4984611;28;20606;-77
2021/01/29 06:11:01;;;;;;;11.33;10.40;;;;;;;1.06;85.45;98524.38;4974933;28;20227;-76
2021/01/29 06:13:42;;;;;;;10.67;9.87;;;;;;;1.04;84.94;98529.53;4982172;28;20210;-76
2021/01/29 06:16:47;;;;;;;12.53;11.33;;;;;;;1.02;84.97;98520.13;4981495;28;20207;-76
2021/01/29 06:19:29;;;;;;;11.47;10.57;;;;;;;1.02;84.82;98515.84;4977006;28;20231;-76
2021/01/29 06:22:28;;;;;;;12.37;11.27;;;;;;;1.04;85.49;98503.81;4983266;28;20202;-76
2021/01/29 06:25:04;;;;;;;11.23;10.23;;;;;;;1.03;84.71;98501.28;4982115;28;20227;-76
2021/01/29 06:27:47;;;;;;;11.60;10.60;;;;;;;0.95;85.45;98491.09;4979222;28;20203;-76
2021/01/29 06:30:24;;;;;;;13.53;11.60;;;;;;;0.85;85.78;98490.34;4982878;28;20235;-77
2021/01/29 06:33:13;;;;;;;12.50;11.27;;;;;;;0.86;85.57;98475.78;4982381;28;20594;-76
2021/01/29 06:36:03;;;;;;;12.50;11.40;;;;;;;0.91;85.57;98466.31;4987512;28;20710;-78
2021/01/29 06:38:55;;;;;;;12.17;11.17;;;;;;;0.93;85.61;98457.72;4984080;28;20211;-78
2021/01/29 06:41:49;;;;;;;12.23;11.13;;;;;;;0.94;85.91;98461.97;4980937;28;20192;-77
2021/01/29 06:44:25;;;;;;;13.63;12.23;;;;;;;0.92;85.54;98456.03;4981231;28;20208;-78
2021/01/29 06:47:06;;;;;;;12.80;11.70;;;;;;;0.91;85.57;98454.34;4977102;28;20690;-78
2021/01/29 06:50:09;;;;;;;11.83;10.77;;;;;;;0.86;86.40;98448.38;4982664;28;20224;-77
2021/01/29 06:53:19;;;;;;;13.90;12.60;;;;;;;0.86;86.23;98455.25;4984399;28;20215;-77
2021/01/29 06:56:27;;;;;;;12.70;11.33;;;;;;;0.84;86.47;98444.16;4978466;28;20262;-77
2021/01/29 06:59:09;;;;;;;14.17;12.87;;;;;;;0.84;86.13;98447.56;4979387;28;20263;-77
2021/01/29 07:01:59;;;;;;;13.63;12.47;;;;;;;0.83;86.60;98442.44;4970156;28;20192;-78
2021/01/29 07:05:02;;;;;;;13.50;12.20;;;;;;;0.79;86.54;98436.47;4979222;28;20582;-76
2021/01/29 07:07:57;;;;;;;15.50;14.10;;;;;;;0.82;86.61;98425.34;4984917;28;20779;-76
2021/01/29 07:10:53;;;;;;;13.43;12.23;;;;;;;0.84;86.70;98421.03;4981405;28;20224;-76
2021/01/29 07:13:45;;;;;;;14.20;12.90;;;;;;;0.82;86.52;98417.63;4968126;28;20205;-77
2021/01/29 07:16:31;;;;;;;14.87;13.47;;;;;;;0.78;87.23;98422.78;4982308;28;20212;-76
2021/01/29 07:19:22;;;;;;;16.20;14.50;;;;;;;0.77;86.71;98415.09;4981805;28;20223;-78
2021/01/29 07:22:11;;;;;;;15.23;13.73;;;;;;;0.79;87.02;98413.38;4984091;28;20203;-76
2021/01/29 07:24:44;;;;;;;14.70;13.30;;;;;;;0.80;86.48;98407.38;4984933;28;20211;-78
2021/01/29 07:27:34;;;;;;;15.57;14.07;;;;;;;0.77;87.14;98404.84;4984494;28;20205;-76
2021/01/29 07:30:20;;;;;;;14.87;13.47;;;;;;;0.82;87.26;98402.22;4981622;28;20278;-76
2021/01/29 07:32:49;;;;;;;16.47;14.77;;;;;;;0.81;86.81;98396.22;4984546;28;20231;-76
2021/01/29 07:35:23;;;;;;;15.43;14.03;;;;;;;0.86;87.00;98398.75;4980639;28;20204;-76
2021/01/29 07:38:15;;;;;;;16.23;14.83;;;;;;;0.84;87.03;98393.63;4983984;28;20203;-76
2021/01/29 07:40:58;;;;;;;16.60;14.83;;;;;;;0.84;86.73;98390.22;4980533;28;20234;-77
2021/01/29 07:43:32;;;;;;;16.47;14.73;;;;;;;0.89;87.08;98388.41;4985255;28;20564;-76
2021/01/29 07:46:12;;;;;;;18.27;15.80;;;;;;;0.82;87.25;98379.97;4977006;28;20210;-76
2021/01/29 07:48:48;;;;;;;18.00;16.10;;;;;;;0.85;86.92;98385.03;4984177;28;20196;-76
2021/01/29 07:51:22;;;;;;;17.80;15.90;;;;;;;0.87;86.52;98382.47;4980200;28;20232;-77
2021/01/29 07:54:09;;;;;;;19.53;16.67;;;;;;;0.95;87.32;98370.34;4986697;28;20247;-76
2021/01/29 07:56:50;;;;;;;17.40;15.70;;;;;;;0.98;86.44;98378.88;4981121;28;20211;-75
2021/01/29 07:59:30;;;;;;;18.40;16.50;;;;;;;0.98;87.28;98378.88;4983787;28;20235;-76
2021/01/29 08:02:11;;;;;;;18.30;16.50;;;;;;;1.03;86.38;98377.97;4984473;28;20732;-76
2021/01/29 08:05:05;;;;;;;18.10;16.30;;;;;;;1.06;86.36;98373.63;4979545;28;20212;-76
2021/01/29 08:07:34;;;;;;;19.27;16.43;;;;;;;1.02;86.81;98368.56;4974911;28;20196;-76
2021/01/29 08:10:04;;;;;;;17.93;16.17;;;;;;;1.02;86.89;98376.28;4979499;28;20250;-77
2021/01/29 08:12:33;;;;;;;18.57;16.77;;;;;;;1.01;87.00;98372.84;4981852;28;20223;-76
2021/01/29 08:15:29;;;;;;;18.40;16.50;;;;;;;1.06;87.08;98371.06;4978757;28;20200;-76
2021/01/29 08:18:24;;;;;;;17.63;15.80;;;;;;;1.06;86.47;98368.50;4982137;28;20203;-78
2021/01/29 08:21:19;;;;;;;17.03;15.23;;;;;;;1.09;87.21;98360.75;4965170;28;20776;-76
2021/01/29 08:23:57;;;;;;;15.93;14.47;;;;;;;1.11;86.67;98364.16;4974891;28;20204;-76
2021/01/29 08:26:41;;;;;;;16.50;14.87;;;;;;;1.14;86.28;98364.09;4978503;28;20203;-76
2021/01/29 08:29:29;;;;;;;15.97;14.37;;;;;;;1.15;86.18;98354.66;4971376;28;20223;-75
2021/01/29 08:32:23;;;;;;;15.07;13.57;;;;;;;1.19;86.84;98353.78;4972948;28;20239;-76
2021/01/29 08:35:10;;;;;;;16.23;14.60;;;;;;;1.21;86.23;98357.16;4973479;28;20667;-76
2021/01/29 08:37:42;;;;;;;17.23;15.37;;;;;;;1.18;86.49;98362.34;4981942;28;20215;-76
2021/01/29 08:40:28;;;;;;;16.73;15.13;;;;;;;1.18;86.02;98359.75;4977049;28;20228;-76
2021/01/29 08:43:45;;;;;;;15.10;13.73;;;;;;;1.19;86.28;98354.59;4979912;28;20200;-76
2021/01/29 08:46:28;;;;;;;14.47;12.97;;;;;;;1.22;86.20;98345.16;4956111;28;20205;-76
2021/01/29 08:49:07;;;;;;;15.13;13.73;;;;;;;1.17;85.75;98340.09;4981955;28;20256;-76
2021/01/29 08:51:41;;;;;;;16.17;14.67;;;;;;;1.19;86.18;98341.75;4981360;28;20231;-76
2021/01/29 08:54:36;;;;;;;15.33;13.90;;;;;;;1.21;86.72;98339.19;4980762;28;20214;-76
2021/01/29 08:57:16;;;;;;;17.30;15.80;;;;;;;1.21;85.93;98336.59;4945747;28;20203;-76
2021/01/29 08:59:44;;;;;;;17.23;15.57;;;;;;;1.22;86.12;98338.28;4976145;28;20238;-77
2021/01/29 09:02:23;;;;;;;17.03;14.93;;;;;;;1.23;85.73;98341.69;4984761;28;20199;-77
2021/01/29 09:04:55;;;;;;;15.40;13.87;;;;;;;1.23;86.34;98342.56;4973930;28;20204;-76
2021/01/29 09:07:25;;;;;;;15.03;13.70;;;;;;;1.21;85.78;98331.47;4979400;28;20335;-76
2021/01/29 09:09:53;;;;;;;16.10;14.50;;;;;;;1.16;86.63;98333.25;4980272;28;20231;-75
2021/01/29 09:12:24;;;;;;;15.57;14.07;;;;;;;1.14;86.20;98333.25;4984486;28;20215;-76
2021/01/29 09:14:56;;;;;;;15.17;13.77;;;;;;;1.18;86.40;98327.19;4979134;28;20339;-75
2021/01/29 09:17:29;;;;;;;13.10;11.93;;;;;;;1.22;86.20;98330.56;4980726;28;20203;-76
2021/01/29 09:19:58;;;;;;;15.00;13.10;;;;;;;1.25;86.89;98324.53;4983668;28;20234;-76
2021/01/29 09:22:30;;;;;;;14.23;12.93;;;;;;;1.20;86.81;98319.47;4983705;28;20210;-77
2021/01/29 09:25:04;;;;;;;13.27;12.07;;;;;;;1.18;86.81;98332.34;4983133;28;20208;-76
2021/01/29 09:27:49;;;;;;;13.17;11.97;;;;;;;1.23;86.50;98321.13;4984805;28;20207;-77
2021/01/29 09:30:21;;;;;;;14.07;12.87;;;;;;;1.17;86.26;98319.53;4984880;28;20235;-76
2021/01/29 09:32:53;;;;;;;12.67;11.47;;;;;;;1.24;86.96;98322.84;4985349;28;20220;-77
2021/01/29 09:35:26;;;;;;;12.60;11.60;;;;;;;1.24;86.77;98320.28;4982816;28;20690;-76
2021/01/29 09:37:56;;;;;;;12.80;11.57;;;;;;;1.25;86.18;98315.13;4986816;28;20622;-76
2021/01/29 09:40:26;;;;;;;13.37;12.07;;;;;;;1.27;86.22;98317.66;4980271;28;20289;-76
2021/01/29 09:43:07;;;;;;;13.47;12.27;;;;;;;1.28;86.62;98314.22;4987510;28;20200;-76
2021/01/29 09:45:38;;;;;;;12.50;11.40;;;;;;;1.26;86.36;98311.66;4981711;28;20211;-77
2021/01/29 09:48:07;;;;;;;13.37;12.27;;;;;;;1.26;86.51;98310.81;4981944;28;20200;-76
2021/01/29 09:50:34;;;;;;;12.60;11.30;;;;;;;1.24;86.11;98310.00;4982667;28;20627;-77
2021/01/29 09:53:21;;;;;;;12.73;11.53;;;;;;;1.22;86.80;98304.03;4983091;28;20227;-78
2021/01/29 09:55:54;;;;;;;13.60;12.30;;;;;;;1.19;86.75;98310.94;4974771;28;20204;-78
2021/01/29 09:58:30;;;;;;;12.80;11.60;;;;;;;1.14;86.69;98314.44;4981647;28;20196;-77
2021/01/29 10:01:02;;;;;;;12.33;11.33;;;;;;;1.12;86.29;98322.16;4984605;28;20638;-77
2021/01/29 10:03:33;;;;;;;13.20;11.97;;;;;;;1.14;86.80;98332.41;4980978;28;20220;-78
2021/01/29 10:06:03;;;;;;;12.80;11.70;;;;;;;1.18;86.54;98318.66;4983512;28;20211;-78
2021/01/29 10:08:35;;;;;;;11.77;10.77;;;;;;;1.18;87.04;98321.22;4992794;28;20192;-78
2021/01/29 10:11:04;;;;;;;11.40;10.47;;;;;;;1.23;86.17;98304.03;4981949;28;20227;-78
2021/01/29 10:13:44;;;;;;;10.87;9.97;;;;;;;1.25;86.05;98307.41;4986897;28;20227;-78
2021/01/29 10:16:19;;;;;;;10.37;9.33;;;;;;;1.21;86.74;98292.91;4982482;28;20199;-78
2021/01/29 10:18:57;;;;;;;10.50;9.50;;;;;;;1.19;86.32;98290.38;4977295;28;20662;-78
2021/01/29 10:21:48;;;;;;;10.30;9.40;;;;;;;1.23;86.90;98292.88;4986648;28;20222;-78
2021/01/29 10:24:21;;;;;;;11.17;10.17;;;;;;;1.27;86.03;98286.81;4985769;28;20212;-78
2021/01/29 10:26:54;;;;;;;10.70;9.70;;;;;;;1.31;85.95;98280.75;4980548;28;20267;-77
2021/01/29 10:29:23;;;;;;;12.95;12.05;;;;;;;1.38;86.39;98279.78;4982945;28;20462;-78
2021/01/29 10:32:01;;;;;;;10.70;9.80;;;;;;;1.43;85.38;98282.25;4986523;28;20227;-78
2021/01/29 10:34:33;;;;;;;10.20;9.33;;;;;;;1.46;85.63;98277.09;4976436;28;20211;-78
2021/01/29 10:37:06;;;;;;;10.57;9.70;;;;;;;1.46;86.00;98277.09;4979737;28;20230;-78
2021/01/29 10:39:49;;;;;;;10.87;10.07;;;;;;;1.42;85.97;98294.28;4977709;28;20695;-78
2021/01/29 10:42:20;;;;;;;11.10;10.20;;;;;;;1.45;85.20;98288.22;4986115;28;20200;-77
2021/01/29 10:44:51;;;;;;;10.87;9.97;;;;;;;1.36;85.52;98290.09;4979551;28;20196;-78
2021/01/29 10:47:24;;;;;;;11.33;10.33;;;;;;;1.36;85.29;98292.66;4988631;28;20192;-78
2021/01/29 10:49:55;;;;;;;11.87;10.77;;;;;;;1.35;86.08;98296.13;4988013;28;20228;-77
2021/01/29 10:52:36;;;;;;;12.07;11.07;;;;;;;1.35;85.68;98305.56;4987300;28;20222;-79
2021/01/29 10:55:05;;;;;;;12.20;11.10;;;;;;;1.41;85.77;98305.44;4966123;28;20208;-79
2021/01/29 10:57:41;;;;;;;14.03;12.63;;;;;;;1.37;85.77;98303.81;4976506;28;20255;-78
2021/01/29 11:00:15;;;;;;;12.67;11.57;;;;;;;1.41;85.38;98308.03;4978389;28;20223;-78
2021/01/29 11:02:46;;;;;;;12.43;11.40;;;;;;;1.39;84.96;98300.31;4975684;28;20196;-79
2021/01/29 11:05:18;;;;;;;12.40;11.40;;;;;;;1.36;85.45;98302.94;4974504;28;20630;-78
2021/01/29 11:07:48;;;;;;;12.93;11.83;;;;;;;1.26;86.18;98305.69;4974511;28;20215;-78
2021/01/29 11:10:19;;;;;;;11.67;10.77;;;;;;;1.30;85.67;98307.34;4977031;28;20224;-78
2021/01/29 11:12:54;;;;;;;13.63;12.33;;;;;;;1.32;86.10;98301.28;4976598;28;20236;-78
2021/01/29 11:15:25;;;;;;;13.63;12.40;;;;;;;1.38;86.05;98295.19;4977623;28;20210;-78
2021/01/29 11:17:56;;;;;;;12.83;11.80;;;;;;;1.36;85.68;98294.38;4979112;28;20211;-78
2021/01/29 11:20:27;;;;;;;13.37;12.10;;;;;;;1.38;85.73;98292.63;4979760;28;20235;-78
2021/01/29 11:23:02;;;;;;;12.70;11.60;;;;;;;1.38;85.24;98296.03;4979146;28;20208;-78
2021/01/29 11:25:46;;;;;;;12.77;11.60;;;;;;;1.43;86.04;98305.41;4975681;28;20200;-78
2021/01/29 11:28:29;;;;;;;14.57;12.17;;;;;;;1.43;85.60;98313.09;4978232;28;20212;-78
2021/01/29 11:31:04;;;;;;;13.10;11.80;;;;;;;1.39;85.39;98331.16;4977469;28;20324;-78
2021/01/29 11:33:34;;;;;;;12.37;11.37;;;;;;;1.43;85.26;98321.69;4977807;28;20230;-78
2021/01/29 11:36:10;;;;;;;12.23;11.13;;;;;;;1.43;85.59;98319.13;4977357;28;20211;-78
2021/01/29 11:38:53;;;;;;;14.47;12.43;;;;;;;1.43;86.09;98321.69;4970623;28;20212;-78
2021/01/29 11:41:28;;;;;;;12.33;11.23;;;;;;;1.44;85.39;98318.22;4977052;28;20208;-79
2021/01/29 11:44:05;;;;;;;11.93;10.97;;;;;;;1.43;85.31;98318.25;4975206;28;20282;-78
2021/01/29 11:46:36;;;;;;;12.60;11.23;;;;;;;1.40;85.50;98308.88;4977365;28;20849;-79
2021/01/29 11:49:12;;;;;;;12.33;11.43;;;;;;;1.45;85.51;98314.81;4977448;28;20228;-79
2021/01/29 11:51:42;;;;;;;12.27;11.27;;;;;;;1.49;85.76;98303.59;4978140;28;20227;-78
2021/01/29 11:54:17;;;;;;;10.87;9.97;;;;;;;1.52;84.69;98295.81;4985760;28;20204;-79
2021/01/29 11:56:55;;;;;;;11.70;10.80;;;;;;;1.55;84.68;98284.66;4984657;28;20586;-79
2021/01/29 11:59:29;;;;;;;11.63;10.67;;;;;;;1.57;84.74;98268.31;4986698;28;20220;-79
2021/01/29 12:02:03;;;;;;;11.27;10.37;;;;;;;1.61;84.97;98257.97;4977421;28;20200;-78
2021/01/29 12:04:38;;;;;;;12.40;11.30;;;;;;;1.62;84.86;98249.38;4975304;28;20219;-79
2021/01/29 12:07:13;;;;;;;12.03;11.03;;;;;;;1.59;85.43;98253.69;4977718;28;20728;-79
2021/01/29 12:09:47;;;;;;;12.70;11.60;;;;;;;1.56;85.59;98258.03;4981663;28;20234;-81
2021/01/29 12:12:22;;;;;;;12.60;11.60;;;;;;;1.57;85.12;98265.75;4986827;28;20219;-80
2021/01/29 12:14:55;;;;;;;12.10;10.90;;;;;;;1.58;85.02;98272.56;4980257;28;20258;-79
2021/01/29 12:17:25;;;;;;;12.43;11.40;;;;;;;1.63;84.66;98277.66;4977081;28;20670;-79